createdAt,value
2023-01-02T00:04:10.649Z,100.00
2023-01-02T00:06:38.360Z,100.00
2023-01-02T00:09:07.947Z,100.00
2023-01-02T00:11:35.102Z,100.00
2023-01-02T00:14:02.129Z,100.00
2023-01-02T00:16:29.886Z,100.00
2023-01-02T00:18:56.994Z,100.00
2023-01-02T00:21:24.338Z,100.00
2023-01-02T00:23:51.477Z,100.00
2023-01-02T00:26:18.459Z,100.00
2023-01-02T00:28:45.468Z,100.00
2023-01-02T00:31:13.851Z,100.00
2023-01-02T00:33:40.964Z,100.00
2023-01-02T00:36:08.724Z,100.00
2023-01-02T00:38:38.274Z,100.00
2023-01-02T00:41:05.983Z,100.00
2023-01-02T00:43:32.881Z,100.00
2023-01-02T00:45:59.770Z,100.00
2023-01-02T00:48:27.705Z,100.00
2023-01-02T00:50:54.585Z,100.00
2023-01-02T00:53:23.031Z,100.00
2023-01-02T00:55:50.009Z,100.00
2023-01-02T00:58:16.937Z,100.00
2023-01-02T01:00:43.944Z,100.00
2023-01-02T01:03:11.225Z,100.00
2023-01-02T01:05:40.246Z,100.00
2023-01-02T01:08:07.256Z,100.00
2023-01-02T01:10:35.569Z,100.00
2023-01-02T01:13:02.623Z,100.00
2023-01-02T01:15:29.575Z,100.00
2023-01-02T01:17:56.569Z,100.00
2023-01-02T01:20:23.549Z,100.00
2023-01-02T01:22:50.406Z,100.00
2023-01-02T01:25:17.453Z,100.00
2023-01-02T01:27:45.912Z,100.00
2023-01-02T01:30:13.067Z,100.00
2023-01-02T01:32:39.922Z,100.00
2023-01-02T01:35:07.070Z,100.00
2023-01-02T01:37:33.928Z,100.00
2023-01-02T01:40:00.819Z,100.00
2023-01-02T01:42:34.302Z,100.00
2023-01-02T01:45:01.320Z,100.00
2023-01-02T01:47:40.786Z,100.00
2023-01-02T01:50:13.917Z,100.00
2023-01-02T01:52:44.879Z,100.00
2023-01-02T01:55:31.798Z,100.00
2023-01-02T01:58:04.592Z,100.00
2023-01-02T02:00:31.624Z,100.00
2023-01-02T02:08:52.462Z,100.00
2023-01-02T02:11:19.987Z,100.00
2023-01-02T02:13:47.533Z,100.00
2023-01-02T02:16:27.264Z,100.00
2023-01-02T02:18:57.557Z,100.00
2023-01-02T02:21:38.652Z,100.00
2023-01-02T02:24:22.790Z,100.00
2023-01-02T02:26:49.857Z,100.00
2023-01-02T02:29:35.720Z,100.00
2023-01-02T02:32:05.499Z,100.00
2023-01-02T02:34:38.612Z,100.00
2023-01-02T02:37:05.495Z,100.00
2023-01-02T02:39:51.151Z,100.00
2023-01-02T02:42:18.024Z,100.00
2023-01-02T02:44:45.231Z,100.00
2023-01-02T02:47:21.554Z,100.00
2023-01-02T02:50:07.401Z,100.00
2023-01-02T02:53:00.387Z,100.00
2023-01-02T02:55:30.894Z,100.00
2023-01-02T02:57:59.833Z,100.00
2023-01-02T03:00:26.762Z,100.00
2023-01-02T03:02:53.848Z,100.00
2023-01-02T03:08:06.937Z,100.00
2023-01-02T03:10:42.833Z,100.00
2023-01-02T03:13:12.867Z,100.00
2023-01-02T03:16:00.633Z,100.00
2023-01-02T03:18:41.216Z,100.00
2023-01-02T03:21:11.070Z,100.00
2023-01-02T03:23:48.557Z,100.00
2023-01-02T03:26:18.367Z,100.00
2023-01-02T03:28:47.496Z,100.00
2023-01-02T03:31:17.710Z,100.00
2023-01-02T03:33:48.886Z,100.00
2023-01-02T03:36:22.427Z,100.00
2023-01-02T03:39:02.841Z,100.00
2023-01-02T03:41:33.123Z,100.00
2023-01-02T03:44:01.531Z,100.00
2023-01-02T03:46:47.107Z,100.00
2023-01-02T03:49:14.203Z,100.00
2023-01-02T03:51:42.065Z,100.00
2023-01-02T03:54:09.495Z,100.00
2023-01-02T03:56:42.634Z,100.00
2023-01-02T03:59:18.430Z,100.00
2023-01-02T04:01:49.787Z,100.00
2023-01-02T04:04:16.766Z,100.00
2023-01-02T04:06:47.244Z,100.00
2023-01-02T04:09:17.150Z,100.00
2023-01-02T04:11:48.138Z,100.00
2023-01-02T04:14:25.032Z,100.00
2023-01-02T04:16:53.666Z,100.00
2023-01-02T04:19:25.907Z,100.00
2023-01-02T04:21:56.396Z,100.00
2023-01-02T04:24:27.130Z,98.83
2023-01-02T04:27:26.813Z,98.47
2023-01-02T04:29:53.875Z,100.00
2023-01-02T04:32:23.564Z,100.00
2023-01-02T04:34:51.715Z,100.00
2023-01-02T04:37:29.936Z,99.55
2023-01-02T04:39:59.433Z,100.00
2023-01-02T04:42:27.034Z,100.00
2023-01-02T04:44:54.478Z,98.76
2023-01-02T04:47:22.079Z,100.00
2023-01-02T04:49:49.057Z,100.00
2023-01-02T04:52:15.934Z,100.00
2023-01-02T04:54:43.234Z,100.00
2023-01-02T04:57:10.299Z,100.00
2023-01-02T04:59:37.258Z,100.00
2023-01-02T05:02:04.854Z,98.62
2023-01-02T05:04:31.942Z,100.00
2023-01-02T05:06:58.970Z,100.00
2023-01-02T05:09:26.012Z,97.95
2023-01-02T05:11:53.256Z,98.14
2023-01-02T05:14:20.312Z,99.14
2023-01-02T05:16:47.344Z,96.79
2023-01-02T05:19:14.444Z,96.20
2023-01-02T05:21:59.699Z,99.04
2023-01-02T05:24:27.834Z,98.81
2023-01-02T05:26:55.156Z,96.63
2023-01-02T05:29:22.195Z,98.54
2023-01-02T05:31:50.836Z,94.56
2023-01-02T05:34:17.932Z,95.98
2023-01-02T05:36:44.816Z,94.94
2023-01-02T05:39:13.033Z,95.89
2023-01-02T05:41:41.193Z,96.47
2023-01-02T05:44:09.455Z,94.54
2023-01-02T05:46:37.563Z,95.01
2023-01-02T05:49:08.365Z,93.58
2023-01-02T05:51:35.764Z,97.09
2023-01-02T05:54:03.163Z,95.58
2023-01-02T05:56:30.191Z,92.23
2023-01-02T05:58:57.471Z,93.90
2023-01-02T06:01:25.789Z,93.07
2023-01-02T06:03:54.450Z,92.70
2023-01-02T06:06:22.978Z,93.27
2023-01-02T06:08:50.361Z,91.26
2023-01-02T06:11:17.403Z,91.10
2023-01-02T06:13:46.107Z,89.94
2023-01-02T06:16:13.181Z,89.69
2023-01-02T06:18:40.707Z,90.52
2023-01-02T06:21:13.725Z,91.41
2023-01-02T06:23:41.018Z,88.25
2023-01-02T06:26:12.897Z,90.67
2023-01-02T06:28:39.975Z,88.95
2023-01-02T06:31:08.273Z,88.67
2023-01-02T06:33:35.378Z,89.09
2023-01-02T06:36:06.172Z,88.29
2023-01-02T06:38:33.592Z,91.05
2023-01-02T06:41:01.308Z,91.92
2023-01-02T06:43:29.448Z,91.57
2023-01-02T06:46:00.442Z,90.12
2023-01-02T06:48:27.760Z,89.92
2023-01-02T06:50:55.397Z,90.14
2023-01-02T06:53:22.348Z,89.30
2023-01-02T06:55:52.951Z,91.64
2023-01-02T06:58:20.260Z,88.62
2023-01-02T07:00:47.869Z,91.12
2023-01-02T07:03:15.059Z,89.61
2023-01-02T07:05:41.994Z,89.21
2023-01-02T07:08:09.658Z,89.92
2023-01-02T07:10:37.214Z,86.51
2023-01-02T07:13:04.196Z,87.43
2023-01-02T07:15:32.358Z,88.24
2023-01-02T07:17:59.299Z,88.03
2023-01-02T07:20:26.307Z,86.06
2023-01-02T07:22:53.691Z,88.49
2023-01-02T07:25:21.458Z,86.50
2023-01-02T07:27:48.628Z,86.80
2023-01-02T07:30:16.484Z,85.26
2023-01-02T07:32:43.696Z,85.12
2023-01-02T07:35:12.176Z,83.48
2023-01-02T07:37:39.060Z,83.97
2023-01-02T07:40:06.286Z,86.04
2023-01-02T07:42:33.192Z,84.38
2023-01-02T07:45:00.187Z,82.78
2023-01-02T07:47:27.084Z,84.54
2023-01-02T07:49:54.228Z,81.84
2023-01-02T07:52:22.549Z,83.37
2023-01-02T07:54:50.426Z,83.92
2023-01-02T07:57:17.476Z,79.93
2023-01-02T07:59:47.210Z,83.05
2023-01-02T08:02:14.298Z,78.77
2023-01-02T08:04:41.328Z,81.53
2023-01-02T08:07:12.235Z,81.97
2023-01-02T08:09:41.054Z,81.48
2023-01-02T08:12:10.719Z,77.40
2023-01-02T08:14:37.605Z,76.86
2023-01-02T08:17:04.525Z,76.79
2023-01-02T08:19:31.476Z,77.94
2023-01-02T08:21:58.470Z,78.26
2023-01-02T08:24:26.113Z,77.28
2023-01-02T08:26:53.083Z,74.09
2023-01-02T08:29:19.949Z,78.19
2023-01-02T08:31:47.019Z,76.92
2023-01-02T08:34:16.224Z,75.66
2023-01-02T08:36:44.025Z,75.67
2023-01-02T08:39:14.022Z,75.21
2023-01-02T08:41:41.394Z,75.57
2023-01-02T08:44:12.778Z,76.10
2023-01-02T08:46:42.899Z,77.08
2023-01-02T08:49:12.605Z,74.92
2023-01-02T08:51:41.998Z,76.16
2023-01-02T08:54:08.919Z,76.71
2023-01-02T08:56:37.806Z,75.66
2023-01-02T08:59:06.310Z,74.09
2023-01-02T09:01:34.038Z,74.62
2023-01-02T09:04:06.241Z,74.03
2023-01-02T09:06:38.568Z,74.07
2023-01-02T09:09:11.605Z,74.60
2023-01-02T09:11:40.212Z,74.75
2023-01-02T09:14:07.209Z,73.54
2023-01-02T09:16:34.302Z,72.33
2023-01-02T09:19:01.803Z,72.03
2023-01-02T09:21:28.890Z,71.62
2023-01-02T09:23:55.791Z,72.07
2023-01-02T09:26:22.688Z,71.47
2023-01-02T09:28:49.745Z,69.95
2023-01-02T09:31:17.278Z,70.45
2023-01-02T09:33:47.555Z,71.13
2023-01-02T09:36:15.658Z,70.98
2023-01-02T09:38:42.844Z,70.47
2023-01-02T09:41:15.613Z,71.14
2023-01-02T09:43:50.344Z,70.89
2023-01-02T09:46:24.555Z,70.33
2023-01-02T09:48:51.892Z,70.13
2023-01-02T09:51:18.989Z,70.10
2023-01-02T09:53:46.147Z,70.45
2023-01-02T09:56:33.896Z,70.52
2023-01-02T09:59:10.021Z,70.53
2023-01-02T10:01:54.652Z,70.75
2023-01-02T10:04:49.798Z,70.56
2023-01-02T10:07:22.495Z,70.41
2023-01-02T10:10:08.444Z,70.92
2023-01-02T10:12:38.433Z,69.92
2023-01-02T10:15:10.752Z,70.00
2023-01-02T10:17:39.746Z,70.05
2023-01-02T10:20:17.682Z,70.22
2023-01-02T10:22:56.207Z,70.08
2023-01-02T10:25:48.108Z,70.02
2023-01-02T10:28:41.639Z,69.88
2023-01-02T10:31:17.975Z,70.34
2023-01-02T10:34:04.038Z,70.18
2023-01-02T10:36:32.531Z,70.79
2023-01-02T10:39:06.731Z,70.47
2023-01-02T10:41:34.139Z,70.45
2023-01-02T10:44:18.089Z,70.56
2023-01-02T10:46:45.041Z,70.56
2023-01-02T10:49:12.670Z,70.05
2023-01-02T10:51:45.135Z,70.43
2023-01-02T10:54:12.795Z,70.61
2023-01-02T10:56:40.639Z,70.22
2023-01-02T10:59:24.398Z,71.15
2023-01-02T11:01:58.271Z,70.94
2023-01-02T11:04:26.558Z,70.85
2023-01-02T11:06:55.929Z,71.24
2023-01-02T11:09:24.900Z,71.39
2023-01-02T11:11:59.157Z,70.82
2023-01-02T11:14:31.602Z,71.42
2023-01-02T11:17:20.128Z,71.70
2023-01-02T11:19:49.086Z,71.67
2023-01-02T11:22:17.940Z,72.02
2023-01-02T11:25:05.098Z,71.97
2023-01-02T11:27:36.296Z,72.26
2023-01-02T11:30:06.055Z,72.12
2023-01-02T11:32:38.956Z,72.44
2023-01-02T11:35:06.696Z,72.72
2023-01-02T11:37:34.270Z,72.46
2023-01-02T11:40:03.223Z,72.40
2023-01-02T11:42:48.922Z,71.96
2023-01-02T11:45:18.233Z,72.10
2023-01-02T11:47:48.064Z,72.71
2023-01-02T11:50:29.075Z,71.98
2023-01-02T11:52:58.693Z,72.67
2023-01-02T11:55:33.008Z,72.73
2023-01-02T11:58:06.071Z,72.99
2023-01-02T12:00:35.341Z,72.38
2023-01-02T12:03:06.842Z,72.75
2023-01-02T12:05:45.199Z,73.30
2023-01-02T12:08:24.850Z,73.54
2023-01-02T12:11:03.223Z,72.97
2023-01-02T12:13:33.207Z,72.97
2023-01-02T12:16:21.777Z,73.33
2023-01-02T12:18:59.294Z,72.56
2023-01-02T12:21:29.670Z,72.92
2023-01-02T12:24:17.710Z,72.67
2023-01-02T12:26:53.919Z,71.63
2023-01-02T12:29:46.168Z,72.14
2023-01-02T12:32:37.376Z,72.09
2023-01-02T12:35:22.859Z,71.55
2023-01-02T12:37:55.176Z,71.66
2023-01-02T12:40:44.072Z,72.05
2023-01-02T12:43:35.753Z,71.88
2023-01-02T12:46:17.337Z,72.13
2023-01-02T12:49:04.889Z,72.59
2023-01-02T12:52:07.383Z,73.15
2023-01-02T12:54:34.321Z,73.00
2023-01-02T12:57:01.286Z,73.61
2023-01-02T12:59:46.988Z,73.93
2023-01-02T13:02:17.106Z,74.50
2023-01-02T13:04:51.903Z,75.25
2023-01-02T13:07:31.710Z,74.53
2023-01-02T13:10:00.990Z,75.19
2023-01-02T13:12:30.111Z,75.74
2023-01-02T13:15:03.043Z,76.20
2023-01-02T13:17:33.574Z,75.51
2023-01-02T13:20:19.800Z,76.23
2023-01-02T13:22:56.017Z,76.43
2023-01-02T13:25:23.753Z,75.68
2023-01-02T13:27:51.638Z,76.56
2023-01-02T13:30:33.926Z,75.73
2023-01-02T13:33:02.142Z,76.61
2023-01-02T13:35:31.630Z,76.42
2023-01-02T13:37:58.951Z,77.17
2023-01-02T13:40:33.002Z,76.32
2023-01-02T13:43:03.638Z,76.77
2023-01-02T13:45:34.880Z,76.43
2023-01-02T13:48:04.063Z,76.65
2023-01-02T13:50:32.974Z,76.04
2023-01-02T13:53:05.776Z,76.00
2023-01-02T13:55:34.180Z,76.69
2023-01-02T13:58:13.648Z,75.85
2023-01-02T14:00:53.504Z,75.94
2023-01-02T14:03:24.218Z,75.97
2023-01-02T14:05:57.829Z,76.04
2023-01-02T14:08:24.896Z,76.05
2023-01-02T14:10:54.352Z,76.19
2023-01-02T14:13:44.409Z,76.12
2023-01-02T14:16:20.946Z,75.69
2023-01-02T14:19:16.724Z,75.49
2023-01-02T14:21:43.695Z,75.78
2023-01-02T14:24:17.614Z,76.00
2023-01-02T14:26:51.191Z,76.36
2023-01-02T14:29:21.820Z,75.79
2023-01-02T14:32:01.172Z,76.24
2023-01-02T14:34:28.394Z,76.67
2023-01-02T14:36:56.861Z,76.87
2023-01-02T14:39:28.998Z,77.00
2023-01-02T14:42:14.437Z,76.92
2023-01-02T14:44:43.488Z,77.30
2023-01-02T14:47:15.535Z,77.24
2023-01-02T14:49:43.704Z,76.65
2023-01-02T14:52:17.486Z,77.06
2023-01-02T14:54:56.154Z,77.43
2023-01-02T14:57:29.990Z,77.43
2023-01-02T14:59:59.097Z,76.95
2023-01-02T15:02:36.960Z,77.15
2023-01-02T15:05:13.286Z,76.86
2023-01-02T15:07:48.810Z,77.10
2023-01-02T15:10:20.284Z,76.99
2023-01-02T15:13:07.827Z,77.19
2023-01-02T15:15:34.879Z,77.29
2023-01-02T15:18:05.371Z,77.45
2023-01-02T15:20:34.524Z,77.69
2023-01-02T15:23:01.476Z,77.24
2023-01-02T15:25:33.219Z,78.11
2023-01-02T15:28:00.184Z,77.57
2023-01-02T15:30:29.559Z,77.17
2023-01-02T15:32:56.571Z,77.31
2023-01-02T15:35:27.768Z,77.23
2023-01-02T15:37:54.991Z,77.62
2023-01-02T15:40:32.154Z,77.92
2023-01-02T15:43:22.710Z,78.09
2023-01-02T15:45:51.710Z,78.48
2023-01-02T15:48:20.802Z,77.88
2023-01-02T15:50:50.314Z,78.01
2023-01-02T15:53:29.608Z,78.61
2023-01-02T15:55:57.139Z,78.03
2023-01-02T15:58:25.845Z,78.29
2023-01-02T16:01:11.590Z,78.16
2023-01-02T16:04:03.103Z,78.43
2023-01-02T16:06:29.725Z,78.06
2023-01-02T16:08:58.342Z,78.42
2023-01-02T16:11:25.827Z,78.13
2023-01-02T16:14:20.672Z,78.02
2023-01-02T16:16:55.812Z,78.36
2023-01-02T16:19:22.691Z,78.48
2023-01-02T16:21:51.167Z,78.79
2023-01-02T16:24:23.891Z,79.13
2023-01-02T16:26:50.841Z,79.59
2023-01-02T16:29:18.852Z,79.46
2023-01-02T16:31:56.343Z,79.60
2023-01-02T16:34:29.255Z,79.53
2023-01-02T16:37:09.255Z,79.59
2023-01-02T16:39:42.244Z,79.94
2023-01-02T16:42:27.605Z,80.17
2023-01-02T16:44:55.685Z,80.51
2023-01-02T16:47:34.150Z,80.08
2023-01-02T16:50:01.211Z,80.27
2023-01-02T16:52:29.559Z,80.67
2023-01-02T16:54:56.641Z,80.60
2023-01-02T16:57:23.802Z,80.44
2023-01-02T16:59:50.701Z,80.16
2023-01-02T17:02:17.734Z,80.48
2023-01-02T17:04:44.655Z,80.77
2023-01-02T17:07:15.708Z,80.72
2023-01-02T17:09:45.467Z,80.82
2023-01-02T17:12:12.383Z,80.44
2023-01-02T17:14:39.360Z,80.74
2023-01-02T17:17:06.648Z,80.82
2023-01-02T17:19:34.090Z,80.55
2023-01-02T17:22:00.961Z,80.66
2023-01-02T17:24:27.863Z,80.61
2023-01-02T17:26:54.921Z,80.34
2023-01-02T17:29:22.039Z,80.80
2023-01-02T17:31:48.992Z,80.25
2023-01-02T17:34:16.009Z,80.42
2023-01-02T17:36:43.022Z,80.64
2023-01-02T17:39:10.320Z,80.73
2023-01-02T17:41:37.174Z,80.90
2023-01-02T17:44:04.240Z,80.57
2023-01-02T17:47:04.515Z,80.68
2023-01-02T17:49:18.406Z,81.19
2023-01-02T17:51:45.280Z,81.17
2023-01-02T17:54:12.237Z,80.91
2023-01-02T17:56:39.473Z,80.88
2023-01-02T17:59:06.845Z,81.37
2023-01-02T18:01:34.063Z,81.06
2023-01-02T18:04:01.082Z,80.89
2023-01-02T18:06:29.203Z,80.93
2023-01-02T18:08:56.261Z,80.99
2023-01-02T18:11:23.957Z,80.70
2023-01-02T18:13:53.326Z,81.30
2023-01-02T18:16:22.554Z,81.25
2023-01-02T18:18:50.616Z,80.87
2023-01-02T18:21:22.506Z,80.90
2023-01-02T18:23:52.432Z,80.77
2023-01-02T18:26:19.414Z,81.11
2023-01-02T18:28:57.464Z,81.12
2023-01-02T18:31:25.372Z,80.69
2023-01-02T18:33:54.777Z,80.39
2023-01-02T18:36:24.470Z,80.77
2023-01-02T18:38:59.350Z,80.46
2023-01-02T18:41:27.416Z,80.35
2023-01-02T18:44:01.606Z,80.32
2023-01-02T18:47:02.033Z,80.55
2023-01-02T18:49:29.035Z,80.40
2023-01-02T18:51:59.082Z,80.30
2023-01-02T18:54:29.713Z,79.86
2023-01-02T18:56:57.602Z,79.77
2023-01-02T18:59:32.180Z,80.09
2023-01-02T19:02:04.502Z,79.55
2023-01-02T19:04:38.088Z,79.79
2023-01-02T19:07:54.143Z,79.96
2023-01-02T19:10:51.441Z,79.67
2023-01-02T19:13:20.490Z,79.78
2023-01-02T19:15:55.739Z,79.75
2023-01-02T19:18:28.086Z,80.27
2023-01-02T19:21:33.884Z,79.80
2023-01-02T19:24:09.427Z,80.28
2023-01-02T19:26:36.293Z,80.10
2023-01-02T19:29:03.460Z,80.33
2023-01-02T19:31:57.185Z,80.24
2023-01-02T19:34:27.112Z,80.62
2023-01-02T19:37:02.080Z,80.53
2023-01-02T19:39:35.945Z,80.84
2023-01-02T19:42:21.456Z,79.94
2023-01-02T19:44:52.431Z,80.74
2023-01-02T19:47:20.015Z,80.03
2023-01-02T19:49:46.997Z,80.12
2023-01-02T19:52:16.032Z,80.62
2023-01-02T19:54:43.357Z,80.34
2023-01-02T19:57:11.248Z,80.66
2023-01-02T19:59:43.497Z,81.04
2023-01-02T20:02:11.721Z,80.79
2023-01-02T20:04:39.079Z,80.70
2023-01-02T20:07:06.077Z,80.95
2023-01-02T20:09:32.928Z,81.25
2023-01-02T20:12:18.554Z,80.92
2023-01-02T20:14:45.588Z,81.18
2023-01-02T20:17:12.585Z,81.16
2023-01-02T20:19:40.263Z,81.45
2023-01-02T20:22:07.590Z,81.61
2023-01-02T20:24:34.610Z,81.74
2023-01-02T20:27:02.455Z,81.59
2023-01-02T20:29:30.912Z,81.42
2023-01-02T20:31:59.407Z,81.56
2023-01-02T20:34:26.417Z,81.96
2023-01-02T20:36:54.075Z,81.76
2023-01-02T20:39:20.960Z,81.70
2023-01-02T20:41:47.957Z,81.32
2023-01-02T20:44:14.985Z,81.26
2023-01-02T20:46:42.055Z,82.03
2023-01-02T20:49:09.312Z,81.73
2023-01-02T20:51:36.351Z,81.48
2023-01-02T20:54:03.973Z,81.77
2023-01-02T20:56:31.218Z,81.24
2023-01-02T20:58:58.508Z,81.56
2023-01-02T21:01:25.729Z,80.98
2023-01-02T21:03:52.782Z,81.92
2023-01-02T21:06:20.659Z,81.73
2023-01-02T21:08:47.806Z,81.15
2023-01-02T21:11:14.759Z,81.86
2023-01-02T21:13:41.620Z,82.06
2023-01-02T21:16:08.609Z,81.77
2023-01-02T21:18:36.970Z,81.63
2023-01-02T21:21:05.670Z,82.08
2023-01-02T21:23:35.400Z,81.88
2023-01-02T21:26:02.701Z,82.40
2023-01-02T21:28:29.664Z,82.44
2023-01-02T21:30:56.946Z,82.63
2023-01-02T21:33:24.969Z,82.39
2023-01-02T21:35:52.822Z,82.41
2023-01-02T21:38:20.464Z,82.14
2023-01-02T21:40:47.506Z,82.56
2023-01-02T21:43:14.533Z,82.12
2023-01-02T21:45:41.680Z,82.20
2023-01-02T21:48:08.634Z,82.51
2023-01-02T21:50:35.633Z,82.10
2023-01-02T21:53:02.661Z,82.63
2023-01-02T21:55:29.654Z,82.60
2023-01-02T21:58:13.865Z,82.77
2023-01-02T22:00:41.428Z,82.52
2023-01-02T22:03:08.706Z,83.01
2023-01-02T22:05:35.768Z,83.18
2023-01-02T22:08:02.701Z,82.17
2023-01-02T22:10:29.681Z,82.96
2023-01-02T22:12:56.609Z,82.69
2023-01-02T22:15:24.112Z,82.09
2023-01-02T22:17:51.068Z,82.77
2023-01-02T22:20:17.959Z,82.64
2023-01-02T22:22:44.867Z,82.46
2023-01-02T22:25:11.819Z,81.93
2023-01-02T22:27:39.738Z,82.38
2023-01-02T22:30:20.974Z,82.55
2023-01-02T22:32:48.844Z,82.55
2023-01-02T22:35:17.043Z,82.32
2023-01-02T22:37:43.899Z,82.60
2023-01-02T22:40:11.253Z,83.23
2023-01-02T22:43:05.293Z,83.17
2023-01-02T22:45:40.478Z,83.45
2023-01-02T22:48:08.578Z,83.63
2023-01-02T22:50:41.761Z,83.29
2023-01-02T22:53:19.380Z,83.77
2023-01-02T22:55:46.801Z,83.79
2023-01-02T22:58:13.899Z,83.90
2023-01-02T23:00:41.053Z,83.56
2023-01-02T23:03:12.665Z,84.01
2023-01-02T23:05:39.722Z,83.58
2023-01-02T23:08:06.823Z,84.34
2023-01-02T23:10:33.868Z,84.27
2023-01-02T23:13:02.135Z,84.54
2023-01-02T23:15:29.190Z,84.88
2023-01-02T23:18:14.687Z,84.59
2023-01-02T23:20:41.551Z,84.94
2023-01-02T23:23:08.470Z,84.86
2023-01-02T23:25:39.112Z,85.30
2023-01-02T23:28:05.960Z,85.09
2023-01-02T23:30:32.849Z,85.21
2023-01-02T23:32:59.728Z,84.75
2023-01-02T23:35:26.588Z,85.41
2023-01-02T23:37:53.559Z,85.51
2023-01-02T23:40:20.486Z,85.27
2023-01-02T23:42:47.332Z,85.39
2023-01-02T23:45:14.247Z,85.34
2023-01-02T23:47:41.141Z,85.45
2023-01-02T23:50:08.288Z,85.97
2023-01-02T23:52:35.211Z,85.61
2023-01-02T23:55:02.195Z,85.19
2023-01-02T23:57:30.225Z,85.66
2023-01-02T23:59:57.058Z,85.44
